Time;durP1;ratioP1;P1;durP2;ratioP2;P2;SDS_P1;SDS_P2;PMS_P1;PMS_P2;Temp;Humidity;BMP_temperature;BMP_pressure;BME280_temperature;BME280_humidity;BME280_pressure;Samples;Min_cycle;Max_cycle;Signal;HPM_P1;HPM_P2
2021/01/20 00:00:10;;;;;;;74.87;32.75;;;;;;;0.10;86.58;98169.09;2309964;77;21285;-63
2021/01/20 00:03:13;;;;;;;73.57;34.23;;;;;;;0.09;86.55;98172.13;2262591;78;21101;-64
2021/01/20 00:06:14;;;;;;;70.00;31.65;;;;;;;0.07;86.57;98171.77;2271590;77;21269;-64
2021/01/20 00:09:15;;;;;;;68.47;31.75;;;;;;;0.09;86.63;98172.13;2286831;77;21262;-63
2021/01/20 00:12:16;;;;;;;76.45;33.88;;;;;;;0.11;86.56;98178.08;2314402;76;21269;-64
2021/01/20 00:15:18;;;;;;;71.10;33.02;;;;;;;0.17;86.71;98180.92;2312616;76;21273;-64
2021/01/20 00:18:19;;;;;;;71.45;33.13;;;;;;;0.21;86.66;98180.41;2261097;77;21296;-64
2021/01/20 00:21:20;;;;;;;70.17;32.60;;;;;;;0.20;86.54;98185.98;2261359;77;21773;-64
2021/01/20 00:24:22;;;;;;;67.37;31.42;;;;;;;0.21;86.71;98186.85;2285591;77;21586;-63
2021/01/20 00:27:23;;;;;;;61.70;28.20;;;;;;;0.20;86.58;98186.44;2265003;77;21280;-64
2021/01/20 00:30:24;;;;;;;57.38;25.82;;;;;;;0.23;86.78;98183.34;2270823;77;21160;-64
2021/01/20 00:33:26;;;;;;;58.85;25.65;;;;;;;0.26;86.75;98181.95;2277111;77;21725;-63
2021/01/20 00:36:27;;;;;;;59.93;26.68;;;;;;;0.30;86.95;98187.44;2279447;77;21162;-65
2021/01/20 00:39:28;;;;;;;53.30;24.50;;;;;;;0.28;87.02;98184.03;2267282;78;21280;-64
2021/01/20 00:42:30;;;;;;;48.85;21.20;;;;;;;0.24;87.01;98176.44;2268355;77;21134;-64
2021/01/20 00:45:31;;;;;;;49.93;19.82;;;;;;;0.23;86.98;98183.34;2268399;77;21307;-64
2021/01/20 00:48:32;;;;;;;47.88;20.08;;;;;;;0.25;87.25;98174.27;2271195;77;21257;-65
2021/01/20 00:51:33;;;;;;;45.55;19.87;;;;;;;0.26;87.27;98175.52;2276831;77;21705;-63
2021/01/20 00:54:34;;;;;;;50.78;21.48;;;;;;;0.22;87.30;98173.91;2317153;76;21721;-64
2021/01/20 00:57:36;;;;;;;43.95;19.40;;;;;;;0.21;87.24;98179.11;2278026;77;21288;-64
2021/01/20 01:00:37;;;;;;;47.08;19.55;;;;;;;0.21;87.39;98176.08;2274053;77;21297;-63
2021/01/20 01:03:38;;;;;;;40.33;17.55;;;;;;;0.20;87.45;98178.25;2275253;77;21673;-63
2021/01/20 01:06:39;;;;;;;44.13;17.40;;;;;;;0.21;87.61;98180.41;2308599;76;21131;-63
2021/01/20 01:09:40;;;;;;;40.08;16.42;;;;;;;0.21;87.84;98174.79;2283372;77;21308;-63
2021/01/20 01:12:42;;;;;;;41.42;17.65;;;;;;;0.20;87.79;98173.09;2269687;77;21286;-64
2021/01/20 01:15:43;;;;;;;42.65;18.73;;;;;;;0.19;87.85;98175.72;2277806;77;21146;-65
2021/01/20 01:18:44;;;;;;;41.53;18.05;;;;;;;0.17;87.71;98175.77;2286943;77;21261;-63
2021/01/20 01:21:45;;;;;;;38.40;16.35;;;;;;;0.17;87.81;98165.45;2316181;76;21681;-65
2021/01/20 01:24:46;;;;;;;38.48;15.00;;;;;;;0.20;87.74;98164.52;2287462;77;21268;-63
2021/01/20 01:27:48;;;;;;;35.38;14.75;;;;;;;0.22;88.04;98166.63;2268511;77;21272;-64
2021/01/20 01:30:49;;;;;;;41.45;16.62;;;;;;;0.21;88.10;98166.22;2263628;77;21189;-64
2021/01/20 01:33:50;;;;;;;39.67;15.85;;;;;;;0.20;87.92;98156.78;2262506;77;21277;-64
2021/01/20 01:36:51;;;;;;;38.13;15.00;;;;;;;0.20;88.28;98153.74;2271169;77;21272;-65
2021/01/20 01:39:52;;;;;;;39.60;15.88;;;;;;;0.18;88.19;98152.12;2261808;77;21724;-65
2021/01/20 01:42:53;;;;;;;37.75;15.63;;;;;;;0.17;88.10;98151.27;2275090;77;21134;-64
2021/01/20 01:45:54;;;;;;;36.13;15.00;;;;;;;0.16;88.10;98151.72;2288506;77;21198;-64
2021/01/20 01:48:56;;;;;;;35.08;14.58;;;;;;;0.19;88.17;98150.79;2309320;76;21138;-65
2021/01/20 01:51:57;;;;;;;37.85;15.32;;;;;;;0.19;88.15;98157.66;2305658;76;21724;-64
2021/01/20 01:55:00;;;;;;;34.45;14.03;;;;;;;0.16;88.31;98154.30;2303835;76;21143;-64
2021/01/20 01:58:01;;;;;;;36.17;15.65;;;;;;;0.14;88.69;98154.80;2306282;76;21260;-64
2021/01/20 02:01:02;;;;;;;36.83;15.78;;;;;;;0.15;88.59;98155.63;2309776;76;21252;-64
2021/01/20 02:04:04;;;;;;;36.93;15.85;;;;;;;0.13;88.33;98149.23;2312306;76;21702;-65
2021/01/20 02:07:06;;;;;;;35.83;15.23;;;;;;;0.13;88.34;98156.97;2306212;76;21592;-64
2021/01/20 02:10:07;;;;;;;36.40;14.13;;;;;;;0.16;88.47;98150.88;2308797;76;21260;-64
2021/01/20 02:13:08;;;;;;;37.65;15.25;;;;;;;0.19;88.50;98152.08;2265653;78;21547;-64
2021/01/20 02:16:09;;;;;;;41.65;17.98;;;;;;;0.19;88.73;98158.95;2270857;77;21284;-65
2021/01/20 02:19:10;;;;;;;35.10;14.30;;;;;;;0.15;88.72;98155.17;2263377;77;21283;-65
2021/01/20 02:22:12;;;;;;;35.20;14.80;;;;;;;0.14;88.76;98157.37;2245567;77;21152;-63
2021/01/20 02:25:13;;;;;;;36.50;14.43;;;;;;;0.13;89.00;98157.39;2263512;77;21261;-64
2021/01/20 02:28:14;;;;;;;35.30;14.70;;;;;;;0.15;89.05;98165.49;2266081;77;21339;-66
2021/01/20 02:31:15;;;;;;;40.55;16.75;;;;;;;0.15;89.21;98165.95;2281515;77;21739;-64
2021/01/20 02:34:16;;;;;;;38.30;16.60;;;;;;;0.14;88.81;98163.83;2273731;77;21336;-65
2021/01/20 02:37:17;;;;;;;34.00;15.35;;;;;;;0.14;88.92;98161.67;2284875;78;21266;-64
2021/01/20 02:40:19;;;;;;;35.73;14.50;;;;;;;0.15;89.29;98169.81;2278264;77;21325;-64
2021/01/20 02:43:20;;;;;;;33.43;13.70;;;;;;;0.13;89.16;98161.27;2267056;77;21577;-63
2021/01/20 02:46:21;;;;;;;33.15;13.93;;;;;;;0.14;89.22;98166.41;2313018;76;21610;-66
2021/01/20 02:49:23;;;;;;;34.60;14.38;;;;;;;0.16;89.03;98170.23;2278347;78;21146;-67
2021/01/20 02:52:24;;;;;;;36.23;15.72;;;;;;;0.19;89.06;98160.23;2267541;77;21305;-64
2021/01/20 02:55:26;;;;;;;35.47;15.83;;;;;;;0.17;89.00;98161.58;2287556;77;21253;-64
2021/01/20 02:58:27;;;;;;;34.92;15.75;;;;;;;0.16;89.08;98163.33;2304566;76;21256;-64
2021/01/20 03:01:28;;;;;;;34.80;14.58;;;;;;;0.18;89.00;98157.28;2306009;76;21106;-64
2021/01/20 03:04:29;;;;;;;38.00;15.45;;;;;;;0.18;89.44;98159.86;2314970;76;21265;-64
2021/01/20 03:07:31;;;;;;;34.15;14.63;;;;;;;0.19;89.34;98157.66;2278166;78;21283;-64
2021/01/20 03:10:32;;;;;;;35.00;14.63;;;;;;;0.22;89.50;98164.05;2283693;77;21281;-64
2021/01/20 03:13:33;;;;;;;35.83;14.98;;;;;;;0.23;89.40;98160.12;2279590;77;21265;-64
2021/01/20 03:16:35;;;;;;;34.63;15.30;;;;;;;0.23;89.22;98154.10;2316662;77;21380;-64
2021/01/20 03:19:36;;;;;;;33.13;15.23;;;;;;;0.22;89.09;98161.01;2266891;78;21244;-64
2021/01/20 03:22:37;;;;;;;33.90;15.23;;;;;;;0.22;89.31;98165.34;2248185;77;21265;-64
2021/01/20 03:25:38;;;;;;;30.02;12.90;;;;;;;0.22;89.22;98157.59;2263729;77;21700;-64
2021/01/20 03:28:40;;;;;;;32.23;15.03;;;;;;;0.24;89.29;98157.09;2288805;77;21269;-63
2021/01/20 03:31:41;;;;;;;30.12;13.80;;;;;;;0.27;89.06;98155.70;2317167;77;21297;-64
2021/01/20 03:34:42;;;;;;;34.10;14.87;;;;;;;0.29;89.15;98159.94;2281728;78;21281;-64
2021/01/20 03:37:43;;;;;;;33.53;14.68;;;;;;;0.29;89.11;98158.64;2263464;77;21748;-64
2021/01/20 03:40:45;;;;;;;34.58;14.73;;;;;;;0.30;88.99;98152.60;2270903;77;21286;-64
2021/01/20 03:43:46;;;;;;;32.10;14.18;;;;;;;0.31;89.20;98149.56;2270846;78;21286;-64
2021/01/20 03:46:47;;;;;;;32.05;13.95;;;;;;;0.32;89.26;98153.39;2261050;77;21728;-64
2021/01/20 03:49:48;;;;;;;34.58;14.73;;;;;;;0.35;89.01;98158.91;2273107;77;21301;-64
2021/01/20 03:52:49;;;;;;;35.60;16.27;;;;;;;0.36;89.28;98164.48;2266650;77;21143;-64
2021/01/20 03:55:50;;;;;;;32.55;14.40;;;;;;;0.37;89.17;98160.98;2251078;77;21341;-64
2021/01/20 03:58:51;;;;;;;35.00;15.90;;;;;;;0.37;89.12;98161.44;2258509;77;21293;-64
2021/01/20 04:01:53;;;;;;;32.80;14.53;;;;;;;0.36;89.30;98161.89;2268389;77;21137;-65
2021/01/20 04:04:54;;;;;;;34.08;13.75;;;;;;;0.37;89.22;98164.85;2238207;77;21721;-65
2021/01/20 04:07:55;;;;;;;28.27;12.75;;;;;;;0.39;89.14;98161.80;2264958;77;21562;-64
2021/01/20 04:10:57;;;;;;;32.38;13.75;;;;;;;0.40;89.23;98167.34;2258587;78;21744;-65
2021/01/20 04:13:58;;;;;;;34.90;15.38;;;;;;;0.43;89.28;98168.56;2269201;77;21280;-64
2021/01/20 04:16:59;;;;;;;37.58;16.65;;;;;;;0.44;89.32;98162.94;2287002;77;21139;-64
2021/01/20 04:20:01;;;;;;;34.67;15.58;;;;;;;0.42;89.48;98165.57;2262533;77;21268;-65
2021/01/20 04:23:02;;;;;;;34.55;15.48;;;;;;;0.42;89.52;98166.03;2260368;77;21688;-67
2021/01/20 04:26:03;;;;;;;31.75;14.75;;;;;;;0.41;89.53;98166.45;2279511;77;21166;-65
2021/01/20 04:29:04;;;;;;;32.53;13.10;;;;;;;0.42;89.91;98169.90;2250950;78;21285;-65
2021/01/20 04:32:05;;;;;;;30.52;13.68;;;;;;;0.44;89.78;98171.97;2269385;77;21321;-64
2021/01/20 04:35:07;;;;;;;33.20;15.75;;;;;;;0.46;89.64;98167.17;2268124;77;21721;-64
2021/01/20 04:38:08;;;;;;;32.73;15.03;;;;;;;0.48;89.57;98165.38;2259313;77;21276;-64
2021/01/20 04:41:09;;;;;;;35.65;16.70;;;;;;;0.48;89.68;98163.25;2312680;76;21282;-63
2021/01/20 04:44:11;;;;;;;41.77;17.00;;;;;;;0.47;89.63;98170.59;2272240;77;21138;-64
2021/01/20 04:47:12;;;;;;;37.42;16.50;;;;;;;0.47;90.10;98164.13;2275620;78;21696;-63
2021/01/20 04:50:13;;;;;;;31.52;14.73;;;;;;;0.48;90.16;98166.66;2248203;77;21713;-63
2021/01/20 04:53:14;;;;;;;30.40;14.23;;;;;;;0.48;90.05;98161.50;2278904;77;21272;-64
2021/01/20 04:56:15;;;;;;;38.73;17.15;;;;;;;0.50;90.18;98165.33;2267735;77;21280;-64
2021/01/20 04:59:16;;;;;;;36.88;17.75;;;;;;;0.52;90.17;98159.69;2270158;78;21265;-64
2021/01/20 05:02:18;;;;;;;35.47;17.03;;;;;;;0.55;90.01;98162.59;2269369;77;21582;-64
2021/01/20 05:05:19;;;;;;;39.40;19.12;;;;;;;0.53;90.33;98169.55;2278680;77;21252;-64
2021/01/20 05:08:20;;;;;;;39.95;18.62;;;;;;;0.51;90.41;98170.89;2265173;77;21731;-64
2021/01/20 05:11:21;;;;;;;38.48;18.20;;;;;;;0.49;90.34;98172.23;2266598;77;21273;-63
2021/01/20 05:14:23;;;;;;;34.08;15.18;;;;;;;0.53;90.17;98177.30;2275729;77;21151;-64
2021/01/20 05:17:24;;;;;;;32.55;14.65;;;;;;;0.54;90.39;98169.50;2264235;77;21281;-63
2021/01/20 05:20:25;;;;;;;38.30;18.45;;;;;;;0.57;90.40;98169.86;2264841;77;21273;-63
2021/01/20 05:23:26;;;;;;;44.00;19.90;;;;;;;0.60;90.30;98168.47;2276274;78;21689;-63
2021/01/20 05:26:27;;;;;;;41.35;20.43;;;;;;;0.60;90.50;98170.59;2317495;76;21721;-63
2021/01/20 05:29:28;;;;;;;41.95;18.82;;;;;;;0.61;90.62;98165.01;2269755;78;21301;-63
2021/01/20 05:32:29;;;;;;;45.78;21.87;;;;;;;0.58;90.18;98176.27;2279894;77;21277;-63
2021/01/20 05:35:31;;;;;;;41.35;20.88;;;;;;;0.60;90.48;98182.67;2259158;78;21313;-63
2021/01/20 05:38:32;;;;;;;41.77;18.87;;;;;;;0.60;90.42;98181.38;2283530;77;21154;-63
2021/01/20 05:41:33;;;;;;;39.98;20.35;;;;;;;0.61;90.60;98180.49;2266406;77;21264;-63
2021/01/20 05:44:34;;;;;;;46.92;23.55;;;;;;;0.63;90.67;98179.98;2276387;78;21264;-64
2021/01/20 05:47:35;;;;;;;52.30;22.37;;;;;;;0.66;90.63;98184.63;2275987;77;21297;-66
2021/01/20 05:50:36;;;;;;;57.17;23.27;;;;;;;0.67;90.52;98181.13;2267804;78;21261;-64
2021/01/20 05:53:37;;;;;;;51.42;21.77;;;;;;;0.68;90.47;98186.70;2309374;76;21292;-65
2021/01/20 05:56:39;;;;;;;55.30;22.22;;;;;;;0.67;90.56;98190.16;2313757;76;21290;-63
2021/01/20 05:59:40;;;;;;;43.52;18.48;;;;;;;0.66;90.38;98193.66;2278662;77;21268;-63
2021/01/20 06:02:41;;;;;;;43.38;19.57;;;;;;;0.67;90.88;98188.03;2301234;76;21258;-65
2021/01/20 06:05:42;;;;;;;46.50;20.70;;;;;;;0.69;90.76;98201.30;2258679;77;21260;-66
2021/01/20 06:08:43;;;;;;;44.03;19.10;;;;;;;0.72;90.60;98191.76;2283688;77;21716;-66
2021/01/20 06:11:46;;;;;;;52.62;23.55;;;;;;;0.76;90.91;98204.97;2260479;78;21285;-68
2021/01/20 06:14:48;;;;;;;53.52;24.50;;;;;;;0.77;90.70;98198.47;2297243;76;21575;-67
2021/01/20 06:17:49;;;;;;;56.30;25.10;;;;;;;0.78;90.60;98200.63;2273724;77;21688;-66
2021/01/20 06:20:50;;;;;;;51.90;25.17;;;;;;;0.76;90.60;98207.12;2287193;77;21296;-65
2021/01/20 06:23:52;;;;;;;39.83;17.92;;;;;;;0.77;90.54;98206.67;2263406;77;21140;-65
2021/01/20 06:26:53;;;;;;;47.60;23.43;;;;;;;0.79;91.42;98210.91;2276946;77;21723;-66
2021/01/20 06:29:54;;;;;;;44.93;19.80;;;;;;;0.81;90.82;98211.69;2258923;78;21281;-67
2021/01/20 06:32:56;;;;;;;44.85;20.10;;;;;;;0.86;90.74;98211.11;2281525;77;21558;-67
2021/01/20 06:35:57;;;;;;;53.02;24.12;;;;;;;0.89;90.72;98212.76;2286395;78;21610;-64
2021/01/20 06:38:58;;;;;;;58.50;27.45;;;;;;;0.90;90.74;98208.42;2265619;77;21275;-67
2021/01/20 06:42:00;;;;;;;57.20;27.65;;;;;;;0.90;91.09;98205.39;2258531;77;21273;-67
2021/01/20 06:45:01;;;;;;;64.17;30.43;;;;;;;0.91;90.87;98208.38;2263500;77;21292;-67
2021/01/20 06:48:02;;;;;;;69.35;30.25;;;;;;;0.92;90.76;98217.82;2261797;77;21327;-67
2021/01/20 06:51:03;;;;;;;50.90;22.30;;;;;;;0.95;90.98;98223.31;2253578;77;21692;-68
2021/01/20 06:54:05;;;;;;;53.75;24.37;;;;;;;0.97;90.98;98218.50;2260042;77;21291;-68
2021/01/20 06:57:06;;;;;;;49.38;22.42;;;;;;;1.02;90.84;98220.93;2270591;77;21265;-67
2021/01/20 07:00:07;;;;;;;52.05;23.95;;;;;;;1.02;90.86;98217.92;2249042;78;21266;-67
2021/01/20 07:03:09;;;;;;;57.03;25.75;;;;;;;1.03;90.89;98224.78;2266497;77;21697;-67
2021/01/20 07:06:10;;;;;;;56.28;27.37;;;;;;;1.03;90.75;98226.50;2265977;77;21311;-67
2021/01/20 07:09:14;;;;;;;59.30;26.40;;;;;;;1.03;90.67;98232.53;2314344;77;21270;-67
2021/01/20 07:12:16;;;;;;;55.17;24.00;;;;;;;1.07;90.70;98225.97;2260225;77;21247;-66
2021/01/20 07:15:18;;;;;;;42.30;20.52;;;;;;;1.12;90.60;98231.81;2257610;77;21249;-66
2021/01/20 07:18:19;;;;;;;44.73;21.40;;;;;;;1.16;90.60;98233.41;2243395;77;21712;-65
2021/01/20 07:21:20;;;;;;;42.45;21.57;;;;;;;1.19;90.55;98232.02;2280905;78;21277;-64
2021/01/20 07:24:21;;;;;;;40.43;20.27;;;;;;;1.25;90.21;98231.84;2308922;76;21268;-65
2021/01/20 07:27:22;;;;;;;41.75;21.90;;;;;;;1.31;90.07;98230.80;2317346;76;21258;-64
2021/01/20 07:30:23;;;;;;;41.58;22.07;;;;;;;1.33;90.02;98234.99;2265118;78;21264;-64
2021/01/20 07:33:24;;;;;;;45.85;19.42;;;;;;;1.40;89.89;98234.81;2285977;77;21163;-64
2021/01/20 07:36:26;;;;;;;45.20;22.82;;;;;;;1.44;89.71;98239.83;2275648;77;21285;-65
2021/01/20 07:39:27;;;;;;;39.67;18.70;;;;;;;1.49;89.65;98246.95;2274801;77;21151;-64
2021/01/20 07:42:28;;;;;;;55.80;27.50;;;;;;;1.54;89.51;98249.41;2262337;77;21701;-64
2021/01/20 07:45:29;;;;;;;76.28;36.73;;;;;;;1.59;89.25;98257.00;2258688;77;21289;-64
2021/01/20 07:48:31;;;;;;;49.20;23.70;;;;;;;1.63;89.12;98252.97;2271177;77;21281;-65
2021/01/20 07:51:33;;;;;;;59.45;29.18;;;;;;;1.70;89.04;98258.78;2260824;77;21153;-65
2021/01/20 07:54:34;;;;;;;113.65;49.20;;;;;;;1.73;88.95;98256.92;2266426;77;21284;-64
2021/01/20 07:57:35;;;;;;;75.40;35.43;;;;;;;1.80;88.79;98256.73;2263921;77;21608;-65
2021/01/20 08:00:37;;;;;;;95.62;44.20;;;;;;;1.88;88.67;98267.20;2286033;77;21602;-64
2021/01/20 08:03:38;;;;;;;106.15;49.27;;;;;;;1.96;88.49;98273.86;2274931;77;21267;-64
2021/01/20 08:06:39;;;;;;;85.25;39.08;;;;;;;2.03;88.42;98269.69;2268024;77;21289;-64
2021/01/20 08:09:40;;;;;;;66.22;28.00;;;;;;;2.13;88.09;98268.09;2259805;77;21284;-64
2021/01/20 08:12:41;;;;;;;82.95;36.05;;;;;;;2.17;87.90;98270.94;2271387;77;21291;-65
2021/01/20 08:15:43;;;;;;;73.75;34.10;;;;;;;2.23;87.82;98268.16;2268994;77;21708;-63
2021/01/20 08:18:44;;;;;;;76.85;38.05;;;;;;;2.34;87.71;98272.92;2266865;77;21212;-64
2021/01/20 08:21:45;;;;;;;82.85;39.27;;;;;;;2.42;87.30;98281.27;2307526;76;21726;-64
2021/01/20 08:24:46;;;;;;;85.53;38.48;;;;;;;2.49;87.01;98282.73;2264463;78;21304;-64
2021/01/20 08:27:47;;;;;;;83.15;40.60;;;;;;;2.58;87.12;98277.66;2269877;78;21135;-64
2021/01/20 08:30:49;;;;;;;62.78;30.85;;;;;;;2.63;86.68;98282.22;2262896;77;21289;-63
2021/01/20 08:33:56;;;;;;;67.95;34.55;;;;;;;2.68;86.44;98288.06;2257688;77;21260;-63
2021/01/20 08:36:56;;;;;;;63.83;30.70;;;;;;;2.71;86.42;98293.12;2273710;77;21705;-64
2021/01/20 08:39:57;;;;;;;61.35;30.72;;;;;;;2.71;86.18;98293.12;2267767;77;21324;-64
2021/01/20 08:42:59;;;;;;;59.83;29.20;;;;;;;2.73;86.26;98290.47;2282520;77;21150;-66
2021/01/20 08:46:00;;;;;;;71.28;34.63;;;;;;;2.78;86.31;98287.27;2311761;76;21244;-66
2021/01/20 08:49:01;;;;;;;58.52;30.88;;;;;;;2.83;85.87;98285.36;2306218;76;21260;-66
2021/01/20 08:52:02;;;;;;;62.63;29.60;;;;;;;2.85;85.86;98288.72;2306085;76;21248;-66
2021/01/20 08:55:04;;;;;;;65.80;32.65;;;;;;;2.87;85.90;98284.31;2314669;76;21162;-66
2021/01/20 08:58:05;;;;;;;59.25;31.62;;;;;;;2.92;85.91;98290.64;2307083;76;21721;-67
2021/01/20 09:01:07;;;;;;;55.40;28.20;;;;;;;2.95;85.73;98288.75;2259658;77;21288;-67
2021/01/20 09:04:09;;;;;;;;;;;;;;;3.02;85.63;98291.13;2313136;76;21282;-67
2021/01/20 09:07:10;;;;;;;54.60;28.70;;;;;;;3.14;85.37;98293.69;2312913;76;20503;-66
2021/01/20 09:10:13;;;;;;;58.10;31.02;;;;;;;3.27;84.86;98300.90;2283782;78;21543;-65
2021/01/20 09:13:14;;;;;;;53.90;28.17;;;;;;;3.28;84.70;98301.30;2254072;78;21263;-64
2021/01/20 09:16:16;;;;;;;64.57;30.27;;;;;;;3.29;84.59;98299.11;2283322;77;21721;-66
2021/01/20 09:19:18;;;;;;;61.08;30.35;;;;;;;3.33;84.69;98296.39;2267558;77;21276;-65
2021/01/20 09:22:19;;;;;;;50.90;26.93;;;;;;;3.39;84.48;98301.31;2273832;77;21314;-64
2021/01/20 09:25:20;;;;;;;54.75;27.70;;;;;;;3.42;84.68;98294.27;2275922;77;21163;-66
2021/01/20 09:28:21;;;;;;;56.35;28.80;;;;;;;3.51;83.90;98296.11;2280563;78;21265;-64
2021/01/20 09:31:24;;;;;;;69.37;31.48;;;;;;;3.61;84.21;98305.20;2309344;76;21554;-64
2021/01/20 09:34:25;;;;;;;67.47;29.85;;;;;;;3.63;83.44;98300.34;2301595;76;21295;-65
2021/01/20 09:37:26;;;;;;;96.28;40.60;;;;;;;3.63;83.38;98295.16;2283356;76;21698;-64
2021/01/20 09:40:27;;;;;;;92.05;39.95;;;;;;;3.80;83.27;98289.71;2264426;78;21590;-65
2021/01/20 09:43:29;;;;;;;90.75;40.38;;;;;;;4.09;82.92;98291.05;2269632;77;21602;-65
2021/01/20 09:46:30;;;;;;;97.60;45.15;;;;;;;4.41;82.12;98276.28;2284202;77;21328;-65
2021/01/20 09:49:31;;;;;;;93.85;44.50;;;;;;;4.61;81.32;98276.68;2270415;77;21621;-65
2021/01/20 09:52:32;;;;;;;97.00;51.50;;;;;;;4.89;81.39;98280.16;2283894;78;21127;-65
2021/01/20 09:55:33;;;;;;;50.45;25.12;;;;;;;5.12;80.87;98274.34;2313058;76;21286;-65
2021/01/20 09:58:39;;;;;;;44.70;23.60;;;;;;;5.23;80.41;98269.91;2286771;77;21262;-66
2021/01/20 10:01:38;;;;;;;55.78;28.15;;;;;;;5.28;79.89;98264.05;2288378;77;21735;-65
2021/01/20 10:04:39;;;;;;;54.25;26.17;;;;;;;5.41;79.89;98259.09;2270324;77;21296;-64
2021/01/20 10:07:40;;;;;;;51.28;24.45;;;;;;;5.63;80.60;98244.55;2271552;77;21281;-65
2021/01/20 10:10:41;;;;;;;47.17;22.55;;;;;;;5.81;79.25;98245.41;2281325;77;21284;-66
2021/01/20 10:13:43;;;;;;;46.00;22.85;;;;;;;5.83;78.90;98245.71;2265122;77;21245;-65
2021/01/20 10:16:46;;;;;;;45.85;23.87;;;;;;;5.75;78.38;98249.16;2284997;78;21111;-65
2021/01/20 10:19:47;;;;;;;44.08;23.85;;;;;;;5.62;78.72;98248.92;2286619;77;21344;-66
2021/01/20 10:22:49;;;;;;;41.77;20.72;;;;;;;5.58;78.87;98239.59;2268863;77;21265;-65
2021/01/20 10:25:51;;;;;;;43.05;19.80;;;;;;;5.67;79.35;98238.28;2286232;77;21174;-65
2021/01/20 10:28:52;;;;;;;47.53;22.30;;;;;;;5.73;77.73;98227.55;2271196;78;21280;-64
2021/01/20 10:31:55;;;;;;;41.33;20.43;;;;;;;5.68;78.77;98237.38;2261773;77;21138;-66
2021/01/20 10:34:57;;;;;;;46.13;21.93;;;;;;;5.70;78.29;98236.82;2240621;77;21245;-65
2021/01/20 10:37:58;;;;;;;53.02;24.37;;;;;;;5.59;78.45;98237.81;2255687;77;21285;-64
2021/01/20 10:41:00;;;;;;;47.50;23.90;;;;;;;5.43;77.74;98230.80;2278119;77;21769;-65
2021/01/20 10:44:01;;;;;;;50.25;24.30;;;;;;;5.30;79.14;98234.89;2260299;77;21269;-64
2021/01/20 10:47:03;;;;;;;55.35;25.17;;;;;;;5.21;79.45;98237.48;2250919;77;21166;-65
2021/01/20 10:50:04;;;;;;;52.23;23.52;;;;;;;5.18;79.16;98243.67;2273304;77;21293;-65
2021/01/20 10:53:05;;;;;;;53.20;23.40;;;;;;;5.20;79.49;98239.26;2268819;77;21146;-65
2021/01/20 10:56:06;;;;;;;48.70;23.50;;;;;;;5.38;80.08;98224.97;2279335;77;21148;-65
2021/01/20 10:59:07;;;;;;;48.70;22.73;;;;;;;5.62;78.84;98220.78;2271248;77;21277;-65
2021/01/20 11:02:09;;;;;;;60.70;31.12;;;;;;;5.82;79.04;98211.92;2279416;78;21139;-64
2021/01/20 11:05:10;;;;;;;56.08;29.25;;;;;;;6.07;78.17;98211.55;2294438;77;21266;-64
2021/01/20 11:08:11;;;;;;;74.80;36.42;;;;;;;6.24;77.78;98210.66;2284156;78;21277;-65
2021/01/20 11:11:12;;;;;;;51.60;24.82;;;;;;;6.43;78.09;98211.81;2257575;77;21264;-65
2021/01/20 11:14:13;;;;;;;47.85;23.65;;;;;;;6.57;76.70;98211.08;2281683;77;21122;-64
2021/01/20 11:17:14;;;;;;;55.48;30.40;;;;;;;6.94;77.02;98212.96;2266842;77;21150;-66
2021/01/20 11:20:16;;;;;;;59.60;30.25;;;;;;;7.10;76.68;98201.20;2266589;77;21705;-65
2021/01/20 11:23:17;;;;;;;49.30;22.87;;;;;;;7.23;74.91;98201.34;2251028;77;21258;-65
2021/01/20 11:26:19;;;;;;;39.50;17.52;;;;;;;7.48;74.57;98185.09;2265560;77;21724;-65
2021/01/20 11:29:22;;;;;;;47.73;24.72;;;;;;;7.46;73.19;98190.88;2282833;77;21158;-65
2021/01/20 11:32:24;;;;;;;46.60;24.72;;;;;;;7.33;73.77;98180.79;2303891;76;21261;-65
2021/01/20 11:35:25;;;;;;;56.25;37.78;;;;;;;6.98;72.94;98185.76;2311902;76;21685;-66
2021/01/20 11:38:26;;;;;;;36.23;16.90;;;;;;;6.84;73.06;98190.91;2260362;77;21701;-65
2021/01/20 11:41:28;;;;;;;37.60;15.60;;;;;;;6.62;72.51;98186.06;2286224;77;21565;-64
2021/01/20 11:44:29;;;;;;;38.78;17.77;;;;;;;6.45;73.18;98185.23;2266622;77;21265;-66
2021/01/20 11:47:30;;;;;;;34.30;14.83;;;;;;;6.38;73.38;98189.09;2277186;77;21277;-65
2021/01/20 11:50:32;;;;;;;42.58;16.67;;;;;;;6.24;73.90;98180.23;2278775;77;21672;-67
2021/01/20 11:53:33;;;;;;;41.02;17.10;;;;;;;6.33;73.96;98186.71;2286380;77;21116;-68
2021/01/20 11:56:35;;;;;;;42.88;16.50;;;;;;;6.66;72.70;98179.76;2263846;77;21254;-65
2021/01/20 11:59:36;;;;;;;44.70;16.62;;;;;;;6.91;73.23;98174.00;2259952;77;21099;-68
2021/01/20 12:02:37;;;;;;;47.20;18.57;;;;;;;7.12;72.14;98174.55;2266410;77;21269;-67
2021/01/20 12:05:38;;;;;;;45.75;17.35;;;;;;;7.03;71.81;98163.36;2286059;77;21191;-67
2021/01/20 12:08:39;;;;;;;48.52;19.62;;;;;;;7.09;71.39;98156.48;2286355;77;21728;-68
2021/01/20 12:11:41;;;;;;;43.00;16.12;;;;;;;7.28;71.70;98151.89;2262673;77;21578;-66
2021/01/20 12:14:42;;;;;;;45.70;17.60;;;;;;;7.49;70.72;98146.81;2274516;78;21699;-68
2021/01/20 12:17:44;;;;;;;45.43;16.57;;;;;;;7.68;71.30;98141.33;2317122;76;21175;-68
2021/01/20 12:20:46;;;;;;;53.83;23.98;;;;;;;7.95;69.89;98134.42;2233535;77;21530;-68
2021/01/20 12:23:47;;;;;;;42.88;16.87;;;;;;;8.05;68.71;98128.65;2269079;77;21271;-67
2021/01/20 12:26:48;;;;;;;39.60;15.85;;;;;;;7.83;69.25;98133.02;2278057;77;21108;-64
2021/01/20 12:29:49;;;;;;;38.85;16.82;;;;;;;7.64;70.47;98128.91;2283055;77;21281;-67
2021/01/20 12:32:50;;;;;;;62.88;29.80;;;;;;;7.48;70.79;98128.98;2285282;77;21282;-66
2021/01/20 12:35:52;;;;;;;75.95;36.53;;;;;;;7.69;71.17;98129.48;2274802;77;21281;-65
2021/01/20 12:38:53;;;;;;;72.90;32.88;;;;;;;8.04;70.89;98133.48;2270528;77;21265;-65
2021/01/20 12:41:55;;;;;;;52.40;24.80;;;;;;;8.25;68.10;98126.93;2261659;77;21258;-64
2021/01/20 12:44:56;;;;;;;43.60;18.95;;;;;;;8.17;68.87;98125.73;2270997;77;21748;-64
2021/01/20 12:47:57;;;;;;;44.50;18.67;;;;;;;8.03;67.29;98122.66;2272541;77;21182;-64
2021/01/20 12:50:59;;;;;;;38.17;15.18;;;;;;;7.84;68.48;98124.27;2315258;76;21139;-64
2021/01/20 12:54:01;;;;;;;33.85;13.32;;;;;;;7.69;68.09;98129.48;2285131;78;21142;-64
2021/01/20 12:57:02;;;;;;;33.60;13.35;;;;;;;7.58;68.61;98127.98;2286234;77;21257;-65
2021/01/20 13:00:03;;;;;;;37.80;14.13;;;;;;;7.51;68.70;98140.55;2271633;77;21266;-67
2021/01/20 13:03:04;;;;;;;37.58;15.53;;;;;;;7.49;69.35;98134.59;2280209;77;21335;-65
2021/01/20 13:06:06;;;;;;;33.50;12.60;;;;;;;7.43;67.77;98131.05;2276920;77;21622;-65
2021/01/20 13:09:07;;;;;;;35.68;13.58;;;;;;;7.41;69.02;98137.66;2266342;78;21206;-65
2021/01/20 13:12:08;;;;;;;36.42;13.35;;;;;;;7.32;68.03;98137.36;2317444;76;21145;-66
2021/01/20 13:15:09;;;;;;;46.25;15.90;;;;;;;6.97;68.62;98138.91;2280520;78;21201;-68
2021/01/20 13:18:11;;;;;;;38.15;14.80;;;;;;;6.65;69.03;98139.84;2260321;77;21295;-64
2021/01/20 13:21:13;;;;;;;38.58;13.95;;;;;;;6.58;69.64;98141.94;2265497;77;21150;-66
2021/01/20 13:24:16;;;;;;;35.00;14.13;;;;;;;6.64;70.08;98152.92;2247257;78;21095;-65
2021/01/20 13:27:17;;;;;;;41.53;17.07;;;;;;;6.49;70.09;98144.20;2270548;77;21677;-67
2021/01/20 13:30:19;;;;;;;37.80;14.53;;;;;;;6.43;70.37;98149.77;2272922;77;21719;-65
2021/01/20 13:33:20;;;;;;;38.27;13.97;;;;;;;6.58;70.73;98146.31;2270567;77;21305;-67
2021/01/20 13:36:22;;;;;;;36.85;14.18;;;;;;;6.69;70.29;98149.14;2254735;78;21135;-67
2021/01/20 13:39:23;;;;;;;40.83;15.78;;;;;;;6.71;69.97;98148.61;2310779;76;21244;-64
2021/01/20 13:42:24;;;;;;;40.23;17.07;;;;;;;6.63;70.40;98155.17;2302844;76;21684;-64
2021/01/20 13:45:25;;;;;;;47.08;20.70;;;;;;;6.51;70.59;98156.23;2259936;77;21289;-65
2021/01/20 13:48:27;;;;;;;42.30;20.23;;;;;;;6.40;70.44;98149.45;2271219;77;21245;-64
2021/01/20 13:51:28;;;;;;;44.38;20.43;;;;;;;6.31;70.73;98152.58;2257459;77;21138;-64
2021/01/20 13:54:29;;;;;;;45.23;19.55;;;;;;;6.17;70.87;98154.14;2262869;77;21256;-69
2021/01/20 13:57:30;;;;;;;41.30;16.85;;;;;;;6.03;70.78;98160.11;2316194;76;21338;-65
2021/01/20 14:00:31;;;;;;;38.73;14.95;;;;;;;5.86;70.99;98160.96;2283360;77;21822;-66